avis per tempestes more information blitzortung!


avis per Pluja more information rain snow radar


Visita la nostra xarxa de llocs de meteo:

Template documentation
and downloads

And another site



Thunderstorms From: 20-07-2018 17:00 Until: 21-07-2018 01:59 warning for: Thunderstorms Level: Yellow info button
Rain From: 20-07-2018 17:00 Until: 21-07-2018 01:59 warning for: Rain Level: Yellow info button

Pagina Historial Weather Underground text

Diari Resum Setembre 8, 2017 Unitats:  Tant    Imperial   Mètric
« Previous Dia
SegĂźent Dia »
Diari Setmana Mensual Anual Personalitzada
  Maxima: Minima: Media:
Temperatura: TemperatureC °F /  -17.8 °C 16.3 °F /  -8.7 °C 21.8 °F /  -5.7 °C
Punt de rosada: DewpointC °F /  -17.8 °C 11.6 °F /  -11.3 °C 13.2 °F /  -10.4 °C
Humitat: Humidity % 44 % 58 %
Wind Speed: WindSpeedKMH mph /  0 km/h - 7.3 mph /  11.7 km/h
RĂ fegues de vent: WindSpeedGustKMH mph /  0 km/h - -
Vent:- - SE
Pression baro: PressurehPa in /  0 hPa 1005.0 in /  34029.3 hPa -
Precipitacions: 0.0 in /  0 mm    
Historical Graphs
 
 
Dades de taula per Setembre 8, 2017
Temps Temperatura Punt de rosada Pression baro Vent Wind Speed RĂ fegues de vent Humitat Rainfall Rate (Hourly)
TemperatureC °F /  -17.8 °C DewpointC °F /  -17.8 °C PressurehPa in /  0 hPa Calm     Humidity % HourlyPrecipMM in /  0 mm
00:01 19.8 °F /  -6.8 °C 13.1 °F /  -10.5 °C 1014.8 in /  34361.1 hPa West 3.7 mph /  6 km/h 3.7 mph /  6 km/h 65 % 0.0 in /  0 mm
00:06 19.7 °F /  -6.8 °C 12.9 °F /  -10.6 °C 1014.8 in /  34361.1 hPa West 2.3 mph /  3.7 km/h 2.3 mph /  3.7 km/h 65 % 0.0 in /  0 mm
10:29 16.3 °F /  -8.7 °C 12.3 °F /  -10.9 °C 1013.8 in /  34327.3 hPa West 1.9 mph /  3.1 km/h   77 % 0.0 in /  0 mm
10:30 16.3 °F /  -8.7 °C 12.3 °F /  -10.9 °C 1013.8 in /  34327.3 hPa West 1.9 mph /  3.1 km/h   77 % 0.0 in /  0 mm
10:31 16.3 °F /  -8.7 °C 12.3 °F /  -10.9 °C 1013.8 in /  34327.3 hPa West 1.9 mph /  3.1 km/h   77 % 0.0 in /  0 mm
10:36 19.2 °F /  -7.1 °C 13.4 °F /  -10.3 °C 1014.8 in /  34361.1 hPa West 2.3 mph /  3.7 km/h   69 % 0.0 in /  0 mm
10:41 19.4 °F /  -7 °C 13.6 °F /  -10.2 °C 1014.8 in /  34361.1 hPa SSE 3.7 mph /  6 km/h 3.7 mph /  6 km/h 69 % 0.0 in /  0 mm
10:46 19.5 °F /  -6.9 °C 13.4 °F /  -10.3 °C 1014.8 in /  34361.1 hPa Calm     68 % 0.0 in /  0 mm
10:51 20.0 °F /  -6.7 °C 13.7 °F /  -10.2 °C 1014.8 in /  34361.1 hPa ENE 5.6 mph /  9 km/h 5.6 mph /  9 km/h 67 % 0.0 in /  0 mm
10:56 20.1 °F /  -6.6 °C 13.6 °F /  -10.2 °C 1014.8 in /  34361.1 hPa NE 5.6 mph /  9 km/h 5.6 mph /  9 km/h 66 % 0.0 in /  0 mm
11:01 20.4 °F /  -6.4 °C 13.8 °F /  -10.1 °C 1014.8 in /  34361.1 hPa ENE 5.6 mph /  9 km/h 5.6 mph /  9 km/h 66 % 0.0 in /  0 mm
11:06 20.4 °F /  -6.4 °C 13.8 °F /  -10.1 °C 1014.8 in /  34361.1 hPa East 5.6 mph /  9 km/h 5.6 mph /  9 km/h 66 % 0.0 in /  0 mm
11:11 20.8 °F /  -6.2 °C 14.2 °F /  -9.9 °C 1014.8 in /  34361.1 hPa NE 5.6 mph /  9 km/h 5.6 mph /  9 km/h 66 % 0.0 in /  0 mm
11:16 20.8 °F /  -6.2 °C 14.2 °F /  -9.9 °C 1014.8 in /  34361.1 hPa ENE 5.6 mph /  9 km/h 5.6 mph /  9 km/h 66 % 0.0 in /  0 mm
11:21 21.1 °F /  -6.1 °C 14.5 °F /  -9.7 °C 1014.8 in /  34361.1 hPa ENE 5.6 mph /  9 km/h 5.6 mph /  9 km/h 66 % 0.0 in /  0 mm
11:26 21.5 °F /  -5.8 °C 14.9 °F /  -9.5 °C 1014.8 in /  34361.1 hPa NW 3.7 mph /  6 km/h 3.7 mph /  6 km/h 66 % 0.0 in /  0 mm
11:31 21.7 °F /  -5.7 °C 14.8 °F /  -9.6 °C 1014.8 in /  34361.1 hPa ENE 5.6 mph /  9 km/h 5.6 mph /  9 km/h 65 % 0.0 in /  0 mm
11:36 22.1 °F /  -5.5 °C 14.9 °F /  -9.5 °C 1014.8 in /  34361.1 hPa ENE 9.7 mph /  15.6 km/h 9.7 mph /  15.6 km/h 64 % 0.0 in /  0 mm
11:41 22.2 °F /  -5.4 °C 15.1 °F /  -9.4 °C 1014.8 in /  34361.1 hPa NNE 9.3 mph /  15 km/h 9.3 mph /  15 km/h 64 % 0.0 in /  0 mm
11:46 22.1 °F /  -5.5 °C 14.9 °F /  -9.5 °C 1014.8 in /  34361.1 hPa SW 9.3 mph /  15 km/h 9.3 mph /  15 km/h 64 % 0.0 in /  0 mm
11:51 22.5 °F /  -5.3 °C 15.3 °F /  -9.3 °C 1014.8 in /  34361.1 hPa NNE 11.1 mph /  17.9 km/h 11.1 mph /  17.9 km/h 64 % 0.0 in /  0 mm
11:56 22.6 °F /  -5.2 °C 15.4 °F /  -9.2 °C 1014.8 in /  34361.1 hPa NE 9.0 mph /  14.5 km/h 9.0 mph /  14.5 km/h 64 % 0.0 in /  0 mm
12:01 22.7 °F /  -5.2 °C 15.1 °F /  -9.4 °C 1014.8 in /  34361.1 hPa SSE 9.3 mph /  15 km/h 9.3 mph /  15 km/h 62 % 0.0 in /  0 mm
12:06 23.2 °F /  -4.9 °C 15.5 °F /  -9.2 °C 1014.8 in /  34361.1 hPa NNE 6.1 mph /  9.8 km/h 6.1 mph /  9.8 km/h 62 % 0.0 in /  0 mm
12:11 23.0 °F /  -5 °C 15.3 °F /  -9.3 °C 1013.8 in /  34327.3 hPa SW 4.2 mph /  6.8 km/h 4.2 mph /  6.8 km/h 62 % 0.0 in /  0 mm
12:16 23.9 °F /  -4.5 °C 16.2 °F /  -8.8 °C 1013.8 in /  34327.3 hPa WNW 3.7 mph /  6 km/h 3.7 mph /  6 km/h 62 % 0.0 in /  0 mm
12:21 23.7 °F /  -4.6 °C 15.7 °F /  -9.1 °C 1013.8 in /  34327.3 hPa East 7.9 mph /  12.7 km/h 7.9 mph /  12.7 km/h 61 % 0.0 in /  0 mm
12:26 23.1 °F /  -4.9 °C 15.4 °F /  -9.2 °C 1013.8 in /  34327.3 hPa ESE 9.3 mph /  15 km/h 9.3 mph /  15 km/h 62 % 0.0 in /  0 mm
12:31 22.9 °F /  -5.1 °C 15.2 °F /  -9.3 °C 1013.8 in /  34327.3 hPa East 11.1 mph /  17.9 km/h 11.1 mph /  17.9 km/h 62 % 0.0 in /  0 mm
12:36 23.0 °F /  -5 °C 15.1 °F /  -9.4 °C 1013.8 in /  34327.3 hPa SE 9.3 mph /  15 km/h 9.3 mph /  15 km/h 61 % 0.0 in /  0 mm
12:41 23.4 °F /  -4.8 °C 15.7 °F /  -9.1 °C 1013.8 in /  34327.3 hPa SSE 9.7 mph /  15.6 km/h 9.7 mph /  15.6 km/h 62 % 0.0 in /  0 mm
12:46 23.4 °F /  -4.8 °C 15.4 °F /  -9.2 °C 1013.8 in /  34327.3 hPa South 9.3 mph /  15 km/h 9.3 mph /  15 km/h 61 % 0.0 in /  0 mm
12:51 23.2 °F /  -4.9 °C 15.5 °F /  -9.2 °C 1013.8 in /  34327.3 hPa ESE 11.1 mph /  17.9 km/h 11.1 mph /  17.9 km/h 62 % 0.0 in /  0 mm
12:56 23.2 °F /  -4.9 °C 15.5 °F /  -9.2 °C 1012.8 in /  34293.4 hPa East 7.4 mph /  11.9 km/h 7.4 mph /  11.9 km/h 62 % 0.0 in /  0 mm
13:01 23.6 °F /  -4.7 °C 16.2 °F /  -8.8 °C 1012.8 in /  34293.4 hPa SE 7.4 mph /  11.9 km/h 7.6 mph /  12.2 km/h 63 % 0.0 in /  0 mm
13:06 23.8 °F /  -4.6 °C 16.1 °F /  -8.8 °C 1013.8 in /  34327.3 hPa ESE 11.1 mph /  17.9 km/h 11.1 mph /  17.9 km/h 62 % 0.0 in /  0 mm
13:11 23.5 °F /  -4.7 °C 15.6 °F /  -9.1 °C 1013.8 in /  34327.3 hPa East 13.0 mph /  20.9 km/h 13.0 mph /  20.9 km/h 61 % 0.0 in /  0 mm
13:16 23.6 °F /  -4.7 °C 15.6 °F /  -9.1 °C 1013.8 in /  34327.3 hPa ESE 9.3 mph /  15 km/h 9.3 mph /  15 km/h 61 % 0.0 in /  0 mm
13:21 23.6 °F /  -4.7 °C 15.6 °F /  -9.1 °C 1013.8 in /  34327.3 hPa SSE 9.3 mph /  15 km/h 9.3 mph /  15 km/h 61 % 0.0 in /  0 mm
13:26 23.5 °F /  -4.7 °C 15.8 °F /  -9 °C 1013.8 in /  34327.3 hPa WSW 11.1 mph /  17.9 km/h 11.1 mph /  17.9 km/h 62 % 0.0 in /  0 mm
13:31 23.3 °F /  -4.8 °C 15.6 °F /  -9.1 °C 1013.8 in /  34327.3 hPa South 14.8 mph /  23.8 km/h 14.8 mph /  23.8 km/h 62 % 0.0 in /  0 mm
13:36 23.4 °F /  -4.8 °C 15.7 °F /  -9.1 °C 1013.8 in /  34327.3 hPa ESE 14.8 mph /  23.8 km/h 14.8 mph /  23.8 km/h 62 % 0.0 in /  0 mm
13:41 23.4 °F /  -4.8 °C 15.4 °F /  -9.2 °C 1013.8 in /  34327.3 hPa East 16.7 mph /  26.9 km/h 16.7 mph /  26.9 km/h 61 % 0.0 in /  0 mm
13:46 23.4 °F /  -4.8 °C 15.4 °F /  -9.2 °C 1013.8 in /  34327.3 hPa East 7.9 mph /  12.7 km/h 7.9 mph /  12.7 km/h 61 % 0.0 in /  0 mm
13:51 23.6 °F /  -4.7 °C 15.6 °F /  -9.1 °C 1012.8 in /  34293.4 hPa East 9.5 mph /  15.3 km/h 9.5 mph /  15.3 km/h 61 % 0.0 in /  0 mm
13:56 23.6 °F /  -4.7 °C 15.6 °F /  -9.1 °C 1012.8 in /  34293.4 hPa South 13.0 mph /  20.9 km/h 13.0 mph /  20.9 km/h 61 % 0.0 in /  0 mm
14:01 23.8 °F /  -4.6 °C 15.8 °F /  -9 °C 1012.8 in /  34293.4 hPa SSW 11.1 mph /  17.9 km/h 11.1 mph /  17.9 km/h 61 % 0.0 in /  0 mm
14:06 23.6 °F /  -4.7 °C 15.6 °F /  -9.1 °C 1012.8 in /  34293.4 hPa ENE 13.0 mph /  20.9 km/h 13.0 mph /  20.9 km/h 61 % 0.0 in /  0 mm
14:11 23.4 °F /  -4.8 °C 15.4 °F /  -9.2 °C 1012.8 in /  34293.4 hPa ESE 9.3 mph /  15 km/h 9.3 mph /  15 km/h 61 % 0.0 in /  0 mm
14:16 23.5 °F /  -4.7 °C 15.3 °F /  -9.3 °C 1012.8 in /  34293.4 hPa East 19.5 mph /  31.4 km/h 19.5 mph /  31.4 km/h 60 % 0.0 in /  0 mm
14:21 23.6 °F /  -4.7 °C 15.4 °F /  -9.2 °C 1012.8 in /  34293.4 hPa ESE 11.1 mph /  17.9 km/h 11.1 mph /  17.9 km/h 60 % 0.0 in /  0 mm
14:26 23.8 °F /  -4.6 °C 15.6 °F /  -9.1 °C 1012.8 in /  34293.4 hPa ESE 13.7 mph /  22 km/h 13.7 mph /  22 km/h 60 % 0.0 in /  0 mm
14:31 24.3 °F /  -4.3 °C 15.5 °F /  -9.2 °C 1012.8 in /  34293.4 hPa SW 11.1 mph /  17.9 km/h 11.1 mph /  17.9 km/h 58 % 0.0 in /  0 mm
14:36 24.0 °F /  -4.4 °C 15.2 °F /  -9.3 °C 1011.7 in /  34256.2 hPa NE 16.7 mph /  26.9 km/h 16.7 mph /  26.9 km/h 58 % 0.0 in /  0 mm
14:41 24.0 °F /  -4.4 °C 15.5 °F /  -9.2 °C 1011.7 in /  34256.2 hPa SE 15.8 mph /  25.4 km/h 15.8 mph /  25.4 km/h 59 % 0.0 in /  0 mm
14:46 24.0 °F /  -4.4 °C 14.9 °F /  -9.5 °C 1011.7 in /  34256.2 hPa ESE 16.7 mph /  26.9 km/h 16.7 mph /  26.9 km/h 57 % 0.0 in /  0 mm
14:51 24.2 °F /  -4.3 °C 15.2 °F /  -9.3 °C 1011.7 in /  34256.2 hPa East 15.8 mph /  25.4 km/h 15.8 mph /  25.4 km/h 57 % 0.0 in /  0 mm
14:56 23.9 °F /  -4.5 °C 14.6 °F /  -9.7 °C 1011.7 in /  34256.2 hPa ENE 14.8 mph /  23.8 km/h 14.8 mph /  23.8 km/h 56 % 0.0 in /  0 mm
15:01 23.9 °F /  -4.5 °C 14.6 °F /  -9.7 °C 1011.7 in /  34256.2 hPa SE 14.8 mph /  23.8 km/h 14.8 mph /  23.8 km/h 56 % 0.0 in /  0 mm
15:06 24.3 °F /  -4.3 °C 14.7 °F /  -9.6 °C 1011.7 in /  34256.2 hPa East 11.1 mph /  17.9 km/h 11.1 mph /  17.9 km/h 55 % 0.0 in /  0 mm
15:11 24.4 °F /  -4.2 °C 14.5 °F /  -9.7 °C 1011.7 in /  34256.2 hPa ESE 14.8 mph /  23.8 km/h 14.8 mph /  23.8 km/h 54 % 0.0 in /  0 mm
15:16 24.6 °F /  -4.1 °C 14.4 °F /  -9.8 °C 1011.7 in /  34256.2 hPa SSE 16.7 mph /  26.9 km/h 16.7 mph /  26.9 km/h 53 % 0.0 in /  0 mm
15:21 24.6 °F /  -4.1 °C 14.4 °F /  -9.8 °C 1010.7 in /  34222.3 hPa ESE 14.8 mph /  23.8 km/h 14.8 mph /  23.8 km/h 53 % 0.0 in /  0 mm
15:26 24.3 °F /  -4.3 °C 13.8 °F /  -10.1 °C 1010.7 in /  34222.3 hPa East 16.7 mph /  26.9 km/h 16.7 mph /  26.9 km/h 52 % 0.0 in /  0 mm
15:31 24.2 °F /  -4.3 °C 13.7 °F /  -10.2 °C 1010.7 in /  34222.3 hPa ESE 9.5 mph /  15.3 km/h 9.5 mph /  15.3 km/h 52 % 0.0 in /  0 mm
15:36 24.4 °F /  -4.2 °C 13.9 °F /  -10.1 °C 1011.7 in /  34256.2 hPa South 14.8 mph /  23.8 km/h 14.8 mph /  23.8 km/h 52 % 0.0 in /  0 mm
15:41 24.3 °F /  -4.3 °C 14.1 °F /  -9.9 °C 1011.7 in /  34256.2 hPa SE 9.3 mph /  15 km/h 9.5 mph /  15.3 km/h 53 % 0.0 in /  0 mm
15:46 24.6 °F /  -4.1 °C 14.1 °F /  -9.9 °C 1011.7 in /  34256.2 hPa East 14.8 mph /  23.8 km/h 14.8 mph /  23.8 km/h 52 % 0.0 in /  0 mm
15:51 24.6 °F /  -4.1 °C 13.8 °F /  -10.1 °C 1011.7 in /  34256.2 hPa ENE 14.8 mph /  23.8 km/h 14.8 mph /  23.8 km/h 51 % 0.0 in /  0 mm
15:56 24.5 °F /  -4.2 °C 13.1 °F /  -10.5 °C 1011.7 in /  34256.2 hPa ESE 20.4 mph /  32.8 km/h 20.4 mph /  32.8 km/h 49 % 0.0 in /  0 mm
16:01 24.6 °F /  -4.1 °C 13.2 °F /  -10.4 °C 1011.7 in /  34256.2 hPa ESE 16.7 mph /  26.9 km/h 16.7 mph /  26.9 km/h 49 % 0.0 in /  0 mm
16:06 24.5 °F /  -4.2 °C 12.8 °F /  -10.7 °C 1012.8 in /  34293.4 hPa ESE 18.5 mph /  29.8 km/h 18.5 mph /  29.8 km/h 48 % 0.0 in /  0 mm
16:11 24.7 °F /  -4.1 °C 12.9 °F /  -10.6 °C 1012.8 in /  34293.4 hPa ESE 14.8 mph /  23.8 km/h 14.8 mph /  23.8 km/h 48 % 0.0 in /  0 mm
16:16 24.9 °F /  -3.9 °C 13.1 °F /  -10.5 °C 1012.8 in /  34293.4 hPa ESE 14.8 mph /  23.8 km/h 14.8 mph /  23.8 km/h 48 % 0.0 in /  0 mm
16:21 24.9 °F /  -3.9 °C 13.1 °F /  -10.5 °C 1011.7 in /  34256.2 hPa SE 13.0 mph /  20.9 km/h 13.0 mph /  20.9 km/h 48 % 0.0 in /  0 mm
16:26 25.1 °F /  -3.8 °C 13.0 °F /  -10.6 °C 1011.7 in /  34256.2 hPa SSE 20.4 mph /  32.8 km/h 20.4 mph /  32.8 km/h 47 % 0.0 in /  0 mm
16:31 25.4 °F /  -3.7 °C 13.3 °F /  -10.4 °C 1011.7 in /  34256.2 hPa ESE 14.8 mph /  23.8 km/h 14.8 mph /  23.8 km/h 47 % 0.0 in /  0 mm
16:36 25.8 °F /  -3.4 °C 13.6 °F /  -10.2 °C 1011.7 in /  34256.2 hPa ENE 5.6 mph /  9 km/h 5.6 mph /  9 km/h 47 % 0.0 in /  0 mm
16:41 25.3 °F /  -3.7 °C 12.8 °F /  -10.7 °C 1011.7 in /  34256.2 hPa East 13.0 mph /  20.9 km/h 13.0 mph /  20.9 km/h 46 % 0.0 in /  0 mm
16:46 25.0 °F /  -3.9 °C 12.2 °F /  -11 °C 1011.7 in /  34256.2 hPa ENE 16.7 mph /  26.9 km/h 16.7 mph /  26.9 km/h 45 % 0.0 in /  0 mm
16:51 24.8 °F /  -4 °C 12.4 °F /  -10.9 °C 1010.7 in /  34222.3 hPa ESE 11.1 mph /  17.9 km/h 11.1 mph /  17.9 km/h 46 % 0.0 in /  0 mm
16:52 24.9 °F /  -3.9 °C 12.5 °F /  -10.8 °C 1010.7 in /  34222.3 hPa ESE 11.1 mph /  17.9 km/h 11.1 mph /  17.9 km/h 46 % 0.0 in /  0 mm
16:57 25.1 °F /  -3.8 °C 12.3 °F /  -10.9 °C 1010.7 in /  34222.3 hPa ESE 14.8 mph /  23.8 km/h 14.8 mph /  23.8 km/h 45 % 0.0 in /  0 mm
17:02 24.8 °F /  -4 °C 12.4 °F /  -10.9 °C 1010.7 in /  34222.3 hPa East 18.5 mph /  29.8 km/h 18.5 mph /  29.8 km/h 46 % 0.0 in /  0 mm
17:07 24.8 °F /  -4 °C 12.1 °F /  -11.1 °C 1010.7 in /  34222.3 hPa ESE 16.7 mph /  26.9 km/h 16.7 mph /  26.9 km/h 45 % 0.0 in /  0 mm
17:12 24.9 °F /  -3.9 °C 12.2 °F /  -11 °C 1010.7 in /  34222.3 hPa ESE 18.5 mph /  29.8 km/h 18.5 mph /  29.8 km/h 45 % 0.0 in /  0 mm
17:17 25.0 °F /  -3.9 °C 11.9 °F /  -11.2 °C 1010.7 in /  34222.3 hPa ESE 19.8 mph /  31.9 km/h 19.8 mph /  31.9 km/h 44 % 0.0 in /  0 mm
17:22 24.6 °F /  -4.1 °C 11.9 °F /  -11.2 °C 1010.7 in /  34222.3 hPa SE 20.4 mph /  32.8 km/h 20.4 mph /  32.8 km/h 45 % 0.0 in /  0 mm
17:27 24.4 °F /  -4.2 °C 12.3 °F /  -10.9 °C 1010.7 in /  34222.3 hPa ESE 13.0 mph /  20.9 km/h 13.0 mph /  20.9 km/h 47 % 0.0 in /  0 mm
17:32 24.4 °F /  -4.2 °C 12.3 °F /  -10.9 °C 1010.7 in /  34222.3 hPa ENE 20.6 mph /  33.2 km/h 20.6 mph /  33.2 km/h 47 % 0.0 in /  0 mm
17:37 24.3 °F /  -4.3 °C 12.3 °F /  -10.9 °C 1010.0 in /  34198.6 hPa ESE 16.7 mph /  26.9 km/h 16.7 mph /  26.9 km/h 47 % 0.0 in /  0 mm
17:42 24.3 °F /  -4.3 °C 12.3 °F /  -10.9 °C 1010.0 in /  34198.6 hPa ESE 13.0 mph /  20.9 km/h 13.0 mph /  20.9 km/h 47 % 0.0 in /  0 mm
17:47 24.3 °F /  -4.3 °C 12.3 °F /  -10.9 °C 1010.0 in /  34198.6 hPa East 11.1 mph /  17.9 km/h 11.1 mph /  17.9 km/h 47 % 0.0 in /  0 mm
17:52 24.3 °F /  -4.3 °C 12.6 °F /  -10.8 °C 1010.7 in /  34222.3 hPa SSE 13.0 mph /  20.9 km/h 13.0 mph /  20.9 km/h 48 % 0.0 in /  0 mm
17:57 24.3 °F /  -4.3 °C 12.6 °F /  -10.8 °C 1010.7 in /  34222.3 hPa ESE 13.0 mph /  20.9 km/h 13.0 mph /  20.9 km/h 48 % 0.0 in /  0 mm
18:02 24.5 °F /  -4.2 °C 12.8 °F /  -10.7 °C 1010.7 in /  34222.3 hPa South 7.4 mph /  11.9 km/h 7.4 mph /  11.9 km/h 48 % 0.0 in /  0 mm
18:07 24.4 °F /  -4.2 °C 12.7 °F /  -10.7 °C 1010.0 in /  34198.6 hPa SSE 7.9 mph /  12.7 km/h 8.7 mph /  14 km/h 48 % 0.0 in /  0 mm
18:12 24.0 °F /  -4.4 °C 12.6 °F /  -10.8 °C 1010.0 in /  34198.6 hPa ENE 14.8 mph /  23.8 km/h 14.8 mph /  23.8 km/h 49 % 0.0 in /  0 mm
18:17 24.0 °F /  -4.4 °C 12.6 °F /  -10.8 °C 1010.0 in /  34198.6 hPa ENE 9.3 mph /  15 km/h 9.3 mph /  15 km/h 49 % 0.0 in /  0 mm
18:22 23.8 °F /  -4.6 °C 12.4 °F /  -10.9 °C 1010.0 in /  34198.6 hPa East 13.0 mph /  20.9 km/h 13.0 mph /  20.9 km/h 49 % 0.0 in /  0 mm
18:27 23.7 °F /  -4.6 °C 12.7 °F /  -10.7 °C 1010.0 in /  34198.6 hPa ESE 13.0 mph /  20.9 km/h 13.0 mph /  20.9 km/h 50 % 0.0 in /  0 mm
18:32 23.5 °F /  -4.7 °C 12.5 °F /  -10.8 °C 1010.0 in /  34198.6 hPa SE 13.0 mph /  20.9 km/h 13.0 mph /  20.9 km/h 50 % 0.0 in /  0 mm
18:37 23.6 °F /  -4.7 °C 12.6 °F /  -10.8 °C 1010.0 in /  34198.6 hPa East 12.6 mph /  20.3 km/h 12.6 mph /  20.3 km/h 50 % 0.0 in /  0 mm
18:42 23.4 °F /  -4.8 °C 12.4 °F /  -10.9 °C 1010.0 in /  34198.6 hPa ESE 13.0 mph /  20.9 km/h 13.0 mph /  20.9 km/h 50 % 0.0 in /  0 mm
18:47 23.3 °F /  -4.8 °C 12.3 °F /  -10.9 °C 1010.0 in /  34198.6 hPa ESE 10.0 mph /  16.1 km/h 10.0 mph /  16.1 km/h 50 % 0.0 in /  0 mm
18:52 23.3 °F /  -4.8 °C 12.3 °F /  -10.9 °C 1010.0 in /  34198.6 hPa East 14.8 mph /  23.8 km/h 14.8 mph /  23.8 km/h 50 % 0.0 in /  0 mm
18:57 23.2 °F /  -4.9 °C 12.2 °F /  -11 °C 1010.0 in /  34198.6 hPa ESE 11.1 mph /  17.9 km/h 11.1 mph /  17.9 km/h 50 % 0.0 in /  0 mm
19:02 23.2 °F /  -4.9 °C 12.5 °F /  -10.8 °C 1010.0 in /  34198.6 hPa ESE 13.7 mph /  22 km/h 13.7 mph /  22 km/h 51 % 0.0 in /  0 mm
19:07 23.1 °F /  -4.9 °C 12.4 °F /  -10.9 °C 1009.0 in /  34164.7 hPa East 7.6 mph /  12.2 km/h 7.6 mph /  12.2 km/h 51 % 0.0 in /  0 mm
19:12 23.1 °F /  -4.9 °C 12.7 °F /  -10.7 °C 1009.0 in /  34164.7 hPa ESE 9.3 mph /  15 km/h 9.3 mph /  15 km/h 52 % 0.0 in /  0 mm
19:15 19.3 °F /  -7.1 °C 12.1 °F /  -11.1 °C 1014.8 in /  34361.1 hPa Calm     63 % 0.0 in /  0 mm
19:17 23.0 °F /  -5 °C 12.6 °F /  -10.8 °C 1009.0 in /  34164.7 hPa ESE 9.3 mph /  15 km/h 9.3 mph /  15 km/h 52 % 0.0 in /  0 mm
19:22 23.0 °F /  -5 °C 12.6 °F /  -10.8 °C 1010.0 in /  34198.6 hPa SSE 10.0 mph /  16.1 km/h 10.0 mph /  16.1 km/h 52 % 0.0 in /  0 mm
19:25 19.3 °F /  -7.1 °C 12.1 °F /  -11.1 °C 1010.0 in /  34198.6 hPa Calm     63 % 0.0 in /  0 mm
19:27 22.8 °F /  -5.1 °C 12.7 °F /  -10.7 °C 1010.0 in /  34198.6 hPa ESE 11.1 mph /  17.9 km/h 11.1 mph /  17.9 km/h 53 % 0.0 in /  0 mm
19:32 22.8 °F /  -5.1 °C 12.7 °F /  -10.7 °C 1010.0 in /  34198.6 hPa ESE 9.3 mph /  15 km/h 9.3 mph /  15 km/h 53 % 0.0 in /  0 mm
19:35 19.1 °F /  -7.2 °C 11.9 °F /  -11.2 °C 1010.0 in /  34198.6 hPa Calm     63 % 0.0 in /  0 mm
19:37 22.7 °F /  -5.2 °C 12.9 °F /  -10.6 °C 1010.0 in /  34198.6 hPa East 11.1 mph /  17.9 km/h 11.1 mph /  17.9 km/h 54 % 0.0 in /  0 mm
19:38 22.7 °F /  -5.2 °C 12.9 °F /  -10.6 °C 1010.0 in /  34198.6 hPa ESE 9.3 mph /  15 km/h 9.3 mph /  15 km/h 54 % 0.0 in /  0 mm
19:43 22.6 °F /  -5.2 °C 12.8 °F /  -10.7 °C 1010.0 in /  34198.6 hPa ESE 9.7 mph /  15.6 km/h 9.7 mph /  15.6 km/h 54 % 0.0 in /  0 mm
19:45 19.0 °F /  -7.2 °C 11.8 °F /  -11.2 °C 1010.0 in /  34198.6 hPa Calm   1.6 mph /  2.6 km/h 63 % 0.0 in /  0 mm
19:48 22.5 °F /  -5.3 °C 13.0 °F /  -10.6 °C 1010.0 in /  34198.6 hPa SE 7.4 mph /  11.9 km/h 7.4 mph /  11.9 km/h 55 % 0.0 in /  0 mm
19:53 22.4 °F /  -5.3 °C 12.9 °F /  -10.6 °C 1010.0 in /  34198.6 hPa ESE 9.3 mph /  15 km/h 9.3 mph /  15 km/h 55 % 0.0 in /  0 mm
19:55 19.0 °F /  -7.2 °C 11.8 °F /  -11.2 °C 1010.0 in /  34198.6 hPa Calm     63 % 0.0 in /  0 mm
19:58 22.3 °F /  -5.4 °C 12.8 °F /  -10.7 °C 1010.0 in /  34198.6 hPa ESE 7.9 mph /  12.7 km/h 7.9 mph /  12.7 km/h 55 % 0.0 in /  0 mm
20:03 22.3 °F /  -5.4 °C 12.8 °F /  -10.7 °C 1010.0 in /  34198.6 hPa East 5.0 mph /  8 km/h 5.0 mph /  8 km/h 55 % 0.0 in /  0 mm
20:05 19.0 °F /  -7.2 °C 11.8 °F /  -11.2 °C 1010.0 in /  34198.6 hPa Calm     63 % 0.0 in /  0 mm
20:08 22.2 °F /  -5.4 °C 12.7 °F /  -10.7 °C 1010.0 in /  34198.6 hPa ESE 7.4 mph /  11.9 km/h 7.4 mph /  11.9 km/h 55 % 0.0 in /  0 mm
20:13 22.1 °F /  -5.5 °C 12.6 °F /  -10.8 °C 1010.0 in /  34198.6 hPa ESE 3.7 mph /  6 km/h 3.7 mph /  6 km/h 55 % 0.0 in /  0 mm
20:15 19.2 °F /  -7.1 °C 12.0 °F /  -11.1 °C 1010.0 in /  34198.6 hPa SW 1.6 mph /  2.6 km/h 3.2 mph /  5.1 km/h 63 % 0.0 in /  0 mm
20:18 22.0 °F /  -5.6 °C 12.8 °F /  -10.7 °C 1010.0 in /  34198.6 hPa ESE 6.9 mph /  11.1 km/h 6.9 mph /  11.1 km/h 56 % 0.0 in /  0 mm
20:23 22.0 °F /  -5.6 °C 12.6 °F /  -10.8 °C 1010.0 in /  34198.6 hPa East 3.7 mph /  6 km/h 3.7 mph /  6 km/h 55 % 0.0 in /  0 mm
20:25 19.3 °F /  -7.1 °C 12.3 °F /  -10.9 °C 1009.0 in /  34164.7 hPa Calm   1.6 mph /  2.6 km/h 64 % 0.0 in /  0 mm
20:28 21.8 °F /  -5.7 °C 12.6 °F /  -10.8 °C 1010.0 in /  34198.6 hPa SW 3.7 mph /  6 km/h 3.7 mph /  6 km/h 56 % 0.0 in /  0 mm
20:33 21.6 °F /  -5.8 °C 12.7 °F /  -10.7 °C 1010.0 in /  34198.6 hPa SSW 1.9 mph /  3.1 km/h   57 % 0.0 in /  0 mm
20:35 19.3 °F /  -7.1 °C 12.3 °F /  -10.9 °C 1009.0 in /  34164.7 hPa Calm   1.6 mph /  2.6 km/h 64 % 0.0 in /  0 mm
20:38 21.5 °F /  -5.8 °C 12.6 °F /  -10.8 °C 1010.0 in /  34198.6 hPa Calm     57 % 0.0 in /  0 mm
20:43 21.4 °F /  -5.9 °C 12.5 °F /  -10.8 °C 1010.0 in /  34198.6 hPa Calm     57 % 0.0 in /  0 mm
20:45 19.1 °F /  -7.2 °C 12.1 °F /  -11.1 °C 1009.0 in /  34164.7 hPa WSW 1.6 mph /  2.6 km/h 3.2 mph /  5.1 km/h 64 % 0.0 in /  0 mm
20:48 21.3 °F /  -5.9 °C 12.4 °F /  -10.9 °C 1010.0 in /  34198.6 hPa Calm     57 % 0.0 in /  0 mm
20:53 21.2 °F /  -6 °C 12.3 °F /  -10.9 °C 1010.0 in /  34198.6 hPa Calm     57 % 0.0 in /  0 mm
20:55 18.9 °F /  -7.3 °C 12.2 °F /  -11 °C 1008.0 in /  34130.9 hPa SW 3.2 mph /  5.1 km/h 3.2 mph /  5.1 km/h 65 % 0.0 in /  0 mm
20:58 21.2 °F /  -6 °C 12.3 °F /  -10.9 °C 1010.0 in /  34198.6 hPa Calm     57 % 0.0 in /  0 mm
21:03 21.0 °F /  -6.1 °C 12.2 °F /  -11 °C 1010.0 in /  34198.6 hPa Calm     57 % 0.0 in /  0 mm
21:05 18.8 °F /  -7.3 °C 12.3 °F /  -10.9 °C 1008.0 in /  34130.9 hPa Calm   1.6 mph /  2.6 km/h 66 % 0.0 in /  0 mm
21:08 21.0 °F /  -6.1 °C 12.2 °F /  -11 °C 1010.0 in /  34198.6 hPa Calm     57 % 0.0 in /  0 mm
21:13 20.8 °F /  -6.2 °C 12.2 °F /  -11 °C 1010.0 in /  34198.6 hPa SW 3.9 mph /  6.3 km/h 3.9 mph /  6.3 km/h 58 % 0.0 in /  0 mm
21:15 18.6 °F /  -7.4 °C 12.1 °F /  -11.1 °C 1008.0 in /  34130.9 hPa Calm   1.6 mph /  2.6 km/h 66 % 0.0 in /  0 mm
21:18 20.6 °F /  -6.3 °C 12.1 °F /  -11.1 °C 1010.0 in /  34198.6 hPa SSW 3.7 mph /  6 km/h 3.7 mph /  6 km/h 58 % 0.0 in /  0 mm
21:23 20.5 °F /  -6.4 °C 11.9 °F /  -11.2 °C 1010.0 in /  34198.6 hPa West 3.7 mph /  6 km/h 3.7 mph /  6 km/h 58 % 0.0 in /  0 mm
21:25 18.6 °F /  -7.4 °C 12.1 °F /  -11.1 °C 1008.0 in /  34130.9 hPa WSW 1.6 mph /  2.6 km/h 3.2 mph /  5.1 km/h 66 % 0.0 in /  0 mm
21:28 20.4 °F /  -6.4 °C 11.8 °F /  -11.2 °C 1010.0 in /  34198.6 hPa SW 2.6 mph /  4.2 km/h   58 % 0.0 in /  0 mm
21:33 20.3 °F /  -6.5 °C 11.8 °F /  -11.2 °C 1010.0 in /  34198.6 hPa SW 3.7 mph /  6 km/h   58 % 0.0 in /  0 mm
21:35 18.6 °F /  -7.4 °C 12.3 °F /  -10.9 °C 1008.0 in /  34130.9 hPa NE 1.6 mph /  2.6 km/h 3.2 mph /  5.1 km/h 67 % 0.0 in /  0 mm
21:38 20.2 °F /  -6.6 °C 11.7 °F /  -11.3 °C 1010.0 in /  34198.6 hPa WSW 1.9 mph /  3.1 km/h   58 % 0.0 in /  0 mm
21:43 20.2 °F /  -6.6 °C 11.7 °F /  -11.3 °C 1010.0 in /  34198.6 hPa Calm     58 % 0.0 in /  0 mm
21:45 18.6 °F /  -7.4 °C 12.3 °F /  -10.9 °C 1007.0 in /  34097 hPa Calm   3.2 mph /  5.1 km/h 67 % 0.0 in /  0 mm
21:48 20.1 °F /  -6.6 °C 11.6 °F /  -11.3 °C 1010.0 in /  34198.6 hPa Calm     58 % 0.0 in /  0 mm
21:53 20.0 °F /  -6.7 °C 11.7 °F /  -11.3 °C 1010.0 in /  34198.6 hPa WSW 1.9 mph /  3.1 km/h   59 % 0.0 in /  0 mm
21:55 18.6 °F /  -7.4 °C 12.6 °F /  -10.8 °C 1008.0 in /  34130.9 hPa Calm   3.2 mph /  5.1 km/h 68 % 0.0 in /  0 mm
21:58 20.0 °F /  -6.7 °C 11.7 °F /  -11.3 °C 1010.0 in /  34198.6 hPa Calm     59 % 0.0 in /  0 mm
22:03 19.9 °F /  -6.7 °C 11.9 °F /  -11.2 °C 1010.0 in /  34198.6 hPa Calm     60 % 0.0 in /  0 mm
22:05 18.7 °F /  -7.4 °C 12.9 °F /  -10.6 °C 1008.0 in /  34130.9 hPa Calm     69 % 0.0 in /  0 mm
22:08 19.8 °F /  -6.8 °C 11.8 °F /  -11.2 °C 1010.0 in /  34198.6 hPa Calm     60 % 0.0 in /  0 mm
22:13 19.7 °F /  -6.8 °C 11.7 °F /  -11.3 °C 1010.0 in /  34198.6 hPa Calm     60 % 0.0 in /  0 mm
22:15 18.7 °F /  -7.4 °C 12.9 °F /  -10.6 °C 1007.0 in /  34097 hPa NNE 1.6 mph /  2.6 km/h 3.2 mph /  5.1 km/h 69 % 0.0 in /  0 mm
22:18 19.7 °F /  -6.8 °C 11.7 °F /  -11.3 °C 1010.0 in /  34198.6 hPa Calm     60 % 0.0 in /  0 mm
22:23 19.6 °F /  -6.9 °C 11.6 °F /  -11.3 °C 1010.0 in /  34198.6 hPa Calm     60 % 0.0 in /  0 mm
22:25 18.7 °F /  -7.4 °C 13.1 °F /  -10.5 °C 1007.0 in /  34097 hPa NNE 1.6 mph /  2.6 km/h 3.2 mph /  5.1 km/h 70 % 0.0 in /  0 mm
22:28 19.6 °F /  -6.9 °C 11.6 °F /  -11.3 °C 1010.0 in /  34198.6 hPa NW 3.7 mph /  6 km/h 3.7 mph /  6 km/h 60 % 0.0 in /  0 mm
22:33 19.7 °F /  -6.8 °C 11.7 °F /  -11.3 °C 1010.0 in /  34198.6 hPa NW 1.9 mph /  3.1 km/h 1.9 mph /  3.1 km/h 60 % 0.0 in /  0 mm
22:35 18.6 °F /  -7.4 °C 13.0 °F /  -10.6 °C 1007.0 in /  34097 hPa NNE 1.6 mph /  2.6 km/h 1.6 mph /  2.6 km/h 70 % 0.0 in /  0 mm
22:38 19.7 °F /  -6.8 °C 11.7 °F /  -11.3 °C 1010.0 in /  34198.6 hPa Calm     60 % 0.0 in /  0 mm
22:43 19.7 °F /  -6.8 °C 11.9 °F /  -11.2 °C 1010.0 in /  34198.6 hPa Calm     61 % 0.0 in /  0 mm
22:45 18.6 °F /  -7.4 °C 13.0 °F /  -10.6 °C 1007.0 in /  34097 hPa NNE 1.6 mph /  2.6 km/h 4.8 mph /  7.7 km/h 70 % 0.0 in /  0 mm
22:48 19.7 °F /  -6.8 °C 11.9 °F /  -11.2 °C 1010.0 in /  34198.6 hPa Calm     61 % 0.0 in /  0 mm
22:53 19.6 °F /  -6.9 °C 11.9 °F /  -11.2 °C 1010.0 in /  34198.6 hPa Calm     61 % 0.0 in /  0 mm
22:55 18.5 °F /  -7.5 °C 13.2 °F /  -10.4 °C 1006.0 in /  34063.2 hPa NE 4.8 mph /  7.7 km/h 6.4 mph /  10.3 km/h 71 % 0.0 in /  0 mm
22:58 19.7 °F /  -6.8 °C 11.9 °F /  -11.2 °C 1010.0 in /  34198.6 hPa Calm     61 % 0.0 in /  0 mm
23:03 19.7 °F /  -6.8 °C 11.7 °F /  -11.3 °C 1010.0 in /  34198.6 hPa Calm     60 % 0.0 in /  0 mm
23:05 18.4 °F /  -7.6 °C 13.1 °F /  -10.5 °C 1006.0 in /  34063.2 hPa NE 4.8 mph /  7.7 km/h 6.4 mph /  10.3 km/h 71 % 0.0 in /  0 mm
23:08 19.8 °F /  -6.8 °C 12.1 °F /  -11.1 °C 1010.0 in /  34198.6 hPa Calm     61 % 0.0 in /  0 mm
23:13 19.9 °F /  -6.7 °C 11.9 °F /  -11.2 °C 1010.0 in /  34198.6 hPa NW 2.3 mph /  3.7 km/h 2.3 mph /  3.7 km/h 60 % 0.0 in /  0 mm
23:15 18.4 °F /  -7.6 °C 13.3 °F /  -10.4 °C 1006.0 in /  34063.2 hPa NNE 3.2 mph /  5.1 km/h 6.4 mph /  10.3 km/h 72 % 0.0 in /  0 mm
23:18 20.0 °F /  -6.7 °C 11.7 °F /  -11.3 °C 1010.0 in /  34198.6 hPa NW 1.9 mph /  3.1 km/h 1.9 mph /  3.1 km/h 59 % 0.0 in /  0 mm
23:23 20.0 °F /  -6.7 °C 12.0 °F /  -11.1 °C 1010.0 in /  34198.6 hPa Calm     60 % 0.0 in /  0 mm
23:25 18.3 °F /  -7.6 °C 13.2 °F /  -10.4 °C 1006.0 in /  34063.2 hPa NE 4.8 mph /  7.7 km/h 6.4 mph /  10.3 km/h 72 % 0.0 in /  0 mm
23:28 20.0 °F /  -6.7 °C 12.0 °F /  -11.1 °C 1010.0 in /  34198.6 hPa Calm     60 % 0.0 in /  0 mm
23:33 20.0 °F /  -6.7 °C 12.0 °F /  -11.1 °C 1010.0 in /  34198.6 hPa Calm     60 % 0.0 in /  0 mm
23:35 18.4 °F /  -7.6 °C 13.4 °F /  -10.3 °C 1006.0 in /  34063.2 hPa NNE 1.6 mph /  2.6 km/h 6.4 mph /  10.3 km/h 73 % 0.0 in /  0 mm
23:38 20.0 °F /  -6.7 °C 12.0 °F /  -11.1 °C 1009.0 in /  34164.7 hPa Calm     60 % 0.0 in /  0 mm
23:43 19.9 °F /  -6.7 °C 12.2 °F /  -11 °C 1009.0 in /  34164.7 hPa SSW 1.9 mph /  3.1 km/h 2.3 mph /  3.7 km/h 61 % 0.0 in /  0 mm
23:45 18.4 °F /  -7.6 °C 13.4 °F /  -10.3 °C 1005.0 in /  34029.3 hPa NNW 1.6 mph /  2.6 km/h 4.8 mph /  7.7 km/h 73 % 0.0 in /  0 mm
23:48 19.6 °F /  -6.9 °C 11.9 °F /  -11.2 °C 1009.0 in /  34164.7 hPa SSW 1.9 mph /  3.1 km/h 1.9 mph /  3.1 km/h 61 % 0.0 in /  0 mm
23:53 19.4 °F /  -7 °C 11.7 °F /  -11.3 °C 1010.0 in /  34198.6 hPa SW 3.2 mph /  5.1 km/h   61 % 0.0 in /  0 mm
23:55 18.4 °F /  -7.6 °C 13.4 °F /  -10.3 °C 1006.0 in /  34063.2 hPa NNW 1.6 mph /  2.6 km/h 3.2 mph /  5.1 km/h 73 % 0.0 in /  0 mm
23:58 19.3 °F /  -7.1 °C 11.6 °F /  -11.3 °C 1010.0 in /  34198.6 hPa SW 2.3 mph /  3.7 km/h 2.3 mph /  3.7 km/h 61 % 0.0 in /  0 mm
Meteo Sesrovires
Elogis d' Weather Underground - 2 mb

Guio original per  Jim McMurry - jmcmurry@mwt.net Adaptat per a la plantilla per  Wim van der Kuil - Leuven-Template.eu

Trobareu la nostra informacio del temps tambe a:

Weather Underground

AWEKAS